createdAt,value
2022-08-05T00:00:23.795Z,100357.66
2022-08-05T00:02:58.298Z,100359.09
2022-08-05T00:06:06.585Z,100355.53
2022-08-05T00:08:34.282Z,100343.38
2022-08-05T00:11:20.642Z,100349.25
2022-08-05T00:13:55.174Z,100350.00
2022-08-05T00:16:36.354Z,100348.78
2022-08-05T00:19:19.501Z,100348.16
2022-08-05T00:21:54.061Z,100337.78
2022-08-05T00:24:30.798Z,100337.22
2022-08-05T00:27:04.635Z,100323.28
2022-08-05T00:29:41.123Z,100330.22
2022-08-05T00:32:15.082Z,100311.38
2022-08-05T00:35:03.826Z,100323.41
2022-08-05T00:37:52.793Z,100327.22
2022-08-05T00:40:26.738Z,100315.22
2022-08-05T00:43:00.645Z,100323.81
2022-08-05T00:45:43.075Z,100326.56
2022-08-05T00:48:15.890Z,100330.16
2022-08-05T00:50:50.166Z,100344.03
2022-08-05T00:54:00.971Z,100337.03
2022-08-05T00:56:17.396Z,100340.28
2022-08-05T00:58:53.654Z,100338.09
2022-08-05T01:01:42.057Z,100337.94
2022-08-05T01:04:14.161Z,100333.19
2022-08-05T01:06:48.766Z,100338.41
2022-08-05T01:09:21.465Z,100344.63
2022-08-05T01:11:55.328Z,100348.47
2022-08-05T01:14:29.809Z,100352.31
2022-08-05T01:17:06.084Z,100351.19
2022-08-05T01:20:00.934Z,100359.53
2022-08-05T01:22:48.385Z,100350.41
2022-08-05T01:25:54.158Z,100363.53
2022-08-05T01:28:33.483Z,100362.28
2022-08-05T01:31:24.801Z,100359.13
2022-08-05T01:34:05.594Z,100361.47
2022-08-05T01:36:52.290Z,100356.56
2022-08-05T01:39:46.196Z,100358.38
2022-08-05T01:42:17.181Z,100358.03
2022-08-05T01:44:54.364Z,100352.91
2022-08-05T01:47:38.967Z,100357.25
2022-08-05T01:50:15.370Z,100356.78
2022-08-05T01:52:50.324Z,100352.22
2022-08-05T01:55:23.293Z,100356.72
2022-08-05T01:58:10.300Z,100360.38
2022-08-05T02:00:51.983Z,100350.78
2022-08-05T02:03:32.106Z,100356.66
2022-08-05T02:06:36.971Z,100352.84
2022-08-05T02:08:59.347Z,100348.97
2022-08-05T02:11:35.644Z,100349.31
2022-08-05T02:14:17.039Z,100340.59
2022-08-05T02:16:53.490Z,100332.91
2022-08-05T02:19:35.817Z,100350.81
2022-08-05T02:22:25.490Z,100350.41
2022-08-05T02:25:00.218Z,100348.41
2022-08-05T02:27:59.080Z,100337.50
2022-08-05T02:30:26.968Z,100328.19
2022-08-05T02:33:01.252Z,100303.66
2022-08-05T02:35:38.515Z,100325.28
2022-08-05T02:38:19.893Z,100333.53
2022-08-05T02:40:50.661Z,100329.63
2022-08-05T02:43:23.141Z,100332.72
2022-08-05T02:45:55.812Z,100325.53
2022-08-05T02:48:33.792Z,100307.56
2022-08-05T02:51:05.344Z,100298.22
2022-08-05T02:53:39.390Z,100306.94
2022-08-05T02:56:16.106Z,100308.66
2022-08-05T02:58:52.675Z,100310.44
2022-08-05T03:01:27.065Z,100287.50
2022-08-05T03:04:12.009Z,100304.72
2022-08-05T03:06:55.446Z,100306.59
2022-08-05T03:09:38.205Z,100295.03
2022-08-05T03:12:31.631Z,100302.06
2022-08-05T03:15:03.335Z,100297.50
2022-08-05T03:17:41.695Z,100297.13
2022-08-05T03:20:15.259Z,100291.03
2022-08-05T03:22:46.964Z,100287.59
2022-08-05T03:25:33.939Z,100282.66
2022-08-05T03:28:14.457Z,100279.84
2022-08-05T03:30:51.147Z,100284.13
2022-08-05T03:33:49.313Z,100279.44
2022-08-05T03:36:29.828Z,100286.47
2022-08-05T03:39:01.450Z,100278.97
2022-08-05T03:41:33.142Z,100283.44
2022-08-05T03:44:11.748Z,100284.78
2022-08-05T03:46:42.648Z,100277.63
2022-08-05T03:49:13.364Z,100269.66
2022-08-05T03:52:48.882Z,100288.19
2022-08-05T03:55:53.227Z,100231.78
2022-08-05T03:57:49.824Z,100265.97
2022-08-05T04:00:22.661Z,100283.56
2022-08-05T04:02:58.915Z,100269.41
2022-08-05T04:05:34.614Z,100257.00
2022-08-05T04:08:14.715Z,100289.06
2022-08-05T04:11:01.953Z,100285.22
2022-08-05T04:13:50.320Z,100288.41
2022-08-05T04:16:25.152Z,100287.50
2022-08-05T04:19:02.873Z,100286.66
2022-08-05T04:22:09.546Z,100294.03
2022-08-05T04:24:33.503Z,100292.97
2022-08-05T04:27:04.069Z,100288.53
2022-08-05T04:29:34.640Z,100287.34
2022-08-05T04:32:05.356Z,100282.22
2022-08-05T04:34:42.996Z,100287.84
2022-08-05T04:37:14.123Z,100280.69
2022-08-05T04:39:46.396Z,100292.31
2022-08-05T04:42:25.490Z,100294.38
2022-08-05T04:44:56.220Z,100292.81
2022-08-05T04:47:26.715Z,100298.13
2022-08-05T04:50:02.067Z,100289.81
2022-08-05T04:52:41.636Z,100296.47
2022-08-05T04:55:17.029Z,100287.94
2022-08-05T04:57:54.496Z,100287.59
2022-08-05T05:00:25.113Z,100286.19
2022-08-05T05:02:57.357Z,100278.50
2022-08-05T05:05:33.744Z,100269.06
2022-08-05T05:08:26.577Z,100261.53
2022-08-05T05:11:02.450Z,100253.81
2022-08-05T05:13:43.341Z,100253.19
2022-08-05T05:16:14.384Z,100254.16
2022-08-05T05:19:08.828Z,100256.19
2022-08-05T05:21:36.741Z,100254.78
2022-08-05T05:24:09.429Z,100263.69
2022-08-05T05:26:42.052Z,100252.31
2022-08-05T05:29:17.782Z,100259.41
2022-08-05T05:31:50.282Z,100257.66
2022-08-05T05:34:26.939Z,100251.69
2022-08-05T05:36:58.408Z,100252.59
2022-08-05T05:39:31.693Z,100252.31
2022-08-05T05:42:08.273Z,100258.78
2022-08-05T05:44:43.136Z,100253.06
2022-08-05T05:47:21.846Z,100253.19
2022-08-05T05:49:56.885Z,100250.69
2022-08-05T05:52:34.581Z,100255.47
2022-08-05T05:55:13.560Z,100245.22
2022-08-05T05:57:52.231Z,100246.19
2022-08-05T06:00:31.806Z,100252.09
2022-08-05T06:03:40.651Z,100241.50
2022-08-05T06:05:59.425Z,100245.09
2022-08-05T06:08:32.253Z,100250.41
2022-08-05T06:11:04.228Z,100228.88
2022-08-05T06:16:32.790Z,100253.53
2022-08-05T06:19:08.415Z,100246.94
2022-08-05T06:21:42.905Z,100247.84
2022-08-05T06:24:25.708Z,100251.44
2022-08-05T06:26:57.954Z,100255.03
2022-08-05T06:29:48.891Z,100249.41
2022-08-05T06:32:26.046Z,100223.56
2022-08-05T06:35:00.021Z,100245.88
2022-08-05T06:37:57.895Z,100244.13
2022-08-05T06:40:27.914Z,100243.22
2022-08-05T06:43:03.029Z,100241.41
2022-08-05T06:45:45.097Z,100248.41
2022-08-05T06:48:50.297Z,100251.16
2022-08-05T06:51:23.960Z,100253.63
2022-08-05T06:54:00.253Z,100257.19
2022-08-05T06:56:34.882Z,100267.66
2022-08-05T06:59:09.575Z,100251.00
2022-08-05T07:01:42.492Z,100254.44
2022-08-05T07:04:14.075Z,100253.47
2022-08-05T07:06:44.994Z,100248.97
2022-08-05T07:09:15.613Z,100247.81
2022-08-05T07:11:51.474Z,100261.81
2022-08-05T07:14:39.059Z,100257.38
2022-08-05T07:17:59.534Z,100258.97
2022-08-05T07:20:32.551Z,100265.66
2022-08-05T07:22:53.284Z,100263.66
2022-08-05T07:25:56.517Z,100261.75
2022-08-05T07:28:17.254Z,100260.88
2022-08-05T07:30:52.759Z,100263.69
2022-08-05T07:33:37.199Z,100276.66
2022-08-05T07:36:20.274Z,100267.56
2022-08-05T07:38:54.671Z,100268.47
2022-08-05T07:42:12.921Z,100258.47
2022-08-05T07:44:19.163Z,100265.22
2022-08-05T07:46:51.495Z,100248.59
2022-08-05T07:49:23.940Z,100271.75
2022-08-05T07:51:55.257Z,100269.97
2022-08-05T07:54:30.960Z,100265.59
2022-08-05T07:57:22.835Z,100268.84
2022-08-05T07:59:55.055Z,100270.63
2022-08-05T08:02:31.176Z,100275.69
2022-08-05T08:05:22.371Z,100262.25
2022-08-05T08:07:59.838Z,100270.41
2022-08-05T08:10:31.742Z,100255.28
2022-08-05T08:13:03.527Z,100267.13
2022-08-05T08:16:34.489Z,100240.06
2022-08-05T08:18:25.344Z,100238.94
2022-08-05T08:21:01.949Z,100252.00
2022-08-05T08:24:02.127Z,100253.28
2022-08-05T08:26:26.875Z,100252.44
2022-08-05T08:29:02.417Z,100243.44
2022-08-05T08:31:53.074Z,100251.69
2022-08-05T08:34:30.429Z,100247.56
2022-08-05T08:37:05.736Z,100247.16
2022-08-05T08:39:37.244Z,100249.81
2022-08-05T08:42:33.980Z,100250.44
2022-08-05T08:45:23.704Z,100253.81
2022-08-05T08:48:06.885Z,100224.03
2022-08-05T08:51:03.815Z,100245.59
2022-08-05T08:53:45.268Z,100239.50
2022-08-05T08:56:16.348Z,100222.22
2022-08-05T08:58:48.931Z,100253.19
2022-08-05T09:01:21.146Z,100255.25
2022-08-05T09:03:55.488Z,100262.34
2022-08-05T09:06:29.967Z,100274.50
2022-08-05T09:09:04.630Z,100272.06
2022-08-05T09:11:51.931Z,100273.94
2022-08-05T09:14:57.812Z,100270.50
2022-08-05T09:17:16.098Z,100275.81
2022-08-05T09:20:08.514Z,100278.47
2022-08-05T09:23:09.565Z,100272.78
2022-08-05T09:26:01.136Z,100274.22
2022-08-05T09:28:35.326Z,100240.56
2022-08-05T09:31:22.481Z,100265.13
2022-08-05T09:34:00.953Z,100272.44
2022-08-05T09:36:55.630Z,100248.91
2022-08-05T09:39:45.096Z,100267.03
2022-08-05T09:42:24.254Z,100275.25
2022-08-05T09:45:03.564Z,100270.22
2022-08-05T09:47:55.985Z,100268.78
2022-08-05T09:50:44.052Z,100263.63
2022-08-05T09:53:25.846Z,100272.47
2022-08-05T09:56:13.142Z,100268.50
2022-08-05T09:58:58.101Z,100271.13
2022-08-05T10:01:32.061Z,100277.66
2022-08-05T10:04:10.711Z,100255.53
2022-08-05T10:06:54.927Z,100283.94
2022-08-05T10:09:30.225Z,100279.94
2022-08-05T10:12:30.670Z,100286.44
2022-08-05T10:15:20.564Z,100286.59
2022-08-05T10:18:12.873Z,100283.78
2022-08-05T10:20:47.930Z,100264.25
2022-08-05T10:23:34.533Z,100286.28
2022-08-05T10:26:13.881Z,100281.22
2022-08-05T10:28:46.501Z,100280.34
2022-08-05T10:32:52.645Z,100268.84
2022-08-05T10:34:11.404Z,100264.56
2022-08-05T10:36:43.500Z,100288.84
2022-08-05T10:39:24.881Z,100292.25
2022-08-05T10:42:18.387Z,100302.19
2022-08-05T10:44:50.617Z,100294.41
2022-08-05T10:47:25.898Z,100303.81
2022-08-05T10:50:31.628Z,100300.53
2022-08-05T10:53:04.094Z,100308.91
2022-08-05T10:56:03.795Z,100305.88
2022-08-05T10:58:47.805Z,100319.13
2022-08-05T11:01:28.050Z,100313.16
2022-08-05T11:04:13.011Z,100320.41
2022-08-05T11:07:09.809Z,100325.81
2022-08-05T11:09:46.730Z,100324.22
2022-08-05T11:12:54.279Z,100332.09
2022-08-05T11:16:01.278Z,100329.78
2022-08-05T11:18:34.542Z,100334.06
2022-08-05T11:21:11.609Z,100335.81
2022-08-05T11:24:04.719Z,100335.97
2022-08-05T11:26:49.551Z,100338.88
2022-08-05T11:29:41.560Z,100341.41
2022-08-05T11:32:28.674Z,100318.13
2022-08-05T11:35:00.077Z,100340.69
2022-08-05T11:38:26.369Z,100335.56
2022-08-05T11:41:34.445Z,100334.06
2022-08-05T11:44:07.536Z,100306.56
2022-08-05T11:46:58.166Z,100328.78
2022-08-05T11:49:34.138Z,100335.75
2022-08-05T11:52:08.755Z,100348.06
2022-08-05T11:54:43.613Z,100337.50
2022-08-05T11:58:07.861Z,100329.13
2022-08-05T12:00:38.425Z,100338.84
2022-08-05T12:03:28.797Z,100339.75
2022-08-05T12:06:06.675Z,100339.81
2022-08-05T12:08:49.754Z,100336.38
2022-08-05T12:11:23.341Z,100339.34
2022-08-05T12:14:04.325Z,100276.75
2022-08-05T12:16:38.350Z,100340.78
2022-08-05T12:20:16.917Z,100335.75
2022-08-05T12:22:02.452Z,100352.16
2022-08-05T12:24:33.002Z,100350.78
2022-08-05T12:27:09.968Z,100344.47
2022-08-05T12:30:04.491Z,100349.88
2022-08-05T12:32:36.231Z,100356.97
2022-08-05T12:35:11.866Z,100346.53
2022-08-05T12:37:49.755Z,100348.50
2022-08-05T12:40:26.700Z,100348.78
2022-08-05T12:42:59.643Z,100354.41
2022-08-05T12:45:42.740Z,100345.81
2022-08-05T12:48:27.155Z,100333.63
2022-08-05T12:51:21.616Z,100331.25
2022-08-05T12:54:16.946Z,100340.97
2022-08-05T12:56:56.471Z,100339.44
2022-08-05T13:00:08.879Z,100342.13
2022-08-05T13:02:27.458Z,100341.50
2022-08-05T13:05:01.389Z,100334.72
2022-08-05T13:07:57.379Z,100331.16
2022-08-05T13:10:22.816Z,100339.88
2022-08-05T13:12:58.021Z,100336.44
2022-08-05T13:15:41.873Z,100333.09
2022-08-05T13:18:24.109Z,100338.34
2022-08-05T13:20:54.865Z,100327.13
2022-08-05T13:23:26.563Z,100336.94
2022-08-05T13:25:59.752Z,100328.53
2022-08-05T13:28:32.356Z,100339.97
2022-08-05T13:31:11.152Z,100333.81
2022-08-05T13:34:23.398Z,100332.09
2022-08-05T13:36:37.271Z,100335.66
2022-08-05T13:40:13.776Z,100340.78
2022-08-05T13:42:02.216Z,100352.94
2022-08-05T13:44:34.618Z,100353.75
2022-08-05T13:47:09.116Z,100352.84
2022-08-05T13:49:45.032Z,100347.59
2022-08-05T13:52:17.088Z,100346.06
2022-08-05T13:54:53.265Z,100351.22
2022-08-05T13:57:24.628Z,100347.88
2022-08-05T13:59:59.419Z,100315.09
2022-08-05T14:02:32.514Z,100346.34
2022-08-05T14:05:15.424Z,100340.44
2022-08-05T14:07:59.893Z,100341.47
2022-08-05T14:10:37.385Z,100336.22
2022-08-05T14:13:08.589Z,100329.16
2022-08-05T14:16:09.287Z,100314.38
2022-08-05T14:18:30.122Z,100320.38
2022-08-05T14:22:09.581Z,100313.38
2022-08-05T14:23:52.927Z,100305.59
2022-08-05T14:26:38.453Z,100301.31
2022-08-05T14:29:16.710Z,100311.84
2022-08-05T14:32:03.778Z,100304.22
2022-08-05T14:34:38.613Z,100288.84
2022-08-05T14:37:13.396Z,100308.88
2022-08-05T14:39:49.906Z,100312.50
2022-08-05T14:42:27.569Z,100304.00
2022-08-05T14:44:58.065Z,100309.25
2022-08-05T14:48:04.269Z,100308.47
2022-08-05T14:50:20.543Z,100300.75
2022-08-05T14:52:57.864Z,100302.44
2022-08-05T14:55:39.488Z,100265.56
2022-08-05T14:58:14.030Z,100297.59
2022-08-05T15:00:58.315Z,100304.56
2022-08-05T15:03:33.875Z,100301.13
2022-08-05T15:06:08.209Z,100254.69
2022-08-05T15:09:01.145Z,100301.22
2022-08-05T15:11:51.666Z,100308.13
2022-08-05T15:14:35.861Z,100309.81
2022-08-05T15:17:47.637Z,100304.56
2022-08-05T15:20:03.314Z,100304.66
2022-08-05T15:22:33.985Z,100306.38
2022-08-05T15:25:11.930Z,100306.47
2022-08-05T15:27:52.253Z,100311.53
2022-08-05T15:30:25.598Z,100309.94
2022-08-05T15:32:56.369Z,100306.56
2022-08-05T15:35:27.354Z,100313.75
2022-08-05T15:38:31.899Z,100308.56
2022-08-05T15:41:22.917Z,100306.56
2022-08-05T15:43:49.979Z,100308.38
2022-08-05T15:46:24.226Z,100302.41
2022-08-05T15:49:01.177Z,100323.44
2022-08-05T15:52:04.119Z,100312.09
2022-08-05T15:54:37.347Z,100315.63
2022-08-05T15:57:10.482Z,100282.75
2022-08-05T15:59:41.247Z,100315.53
2022-08-05T16:02:27.731Z,100314.69
2022-08-05T16:04:59.463Z,100315.44
2022-08-05T16:07:30.078Z,100313.63
2022-08-05T16:10:00.762Z,100299.69
2022-08-05T16:12:33.153Z,100305.69
2022-08-05T16:15:04.948Z,100294.31
2022-08-05T16:17:38.707Z,100294.44
2022-08-05T16:20:12.146Z,100297.97
2022-08-05T16:22:43.071Z,100301.50
2022-08-05T16:25:14.107Z,100312.00
2022-08-05T16:28:01.014Z,100300.63
2022-08-05T16:30:36.808Z,100273.88
2022-08-05T16:33:07.663Z,100298.25
2022-08-05T16:35:42.250Z,100288.28
2022-08-05T16:38:24.981Z,100296.78
2022-08-05T16:41:01.260Z,100300.41
2022-08-05T16:43:35.247Z,100293.59
2022-08-05T16:46:23.981Z,100293.69
2022-08-05T16:48:55.789Z,100305.06
2022-08-05T16:51:31.100Z,100276.84
2022-08-05T16:54:24.007Z,100288.28
2022-08-05T16:57:00.387Z,100293.34
2022-08-05T16:59:33.765Z,100296.75
2022-08-05T17:02:24.526Z,100283.88
2022-08-05T17:04:58.871Z,100284.81
2022-08-05T17:07:31.982Z,100286.41
2022-08-05T17:10:11.308Z,100285.63
2022-08-05T17:12:50.910Z,100271.78
2022-08-05T17:15:24.245Z,100277.91
2022-08-05T17:18:00.127Z,100283.03
2022-08-05T17:20:31.089Z,100266.75
2022-08-05T17:23:01.731Z,100287.44
2022-08-05T17:25:33.810Z,100282.28
2022-08-05T17:28:04.990Z,100284.91
2022-08-05T17:30:50.587Z,100288.38
2022-08-05T17:33:23.338Z,100291.03
2022-08-05T17:36:07.661Z,100289.47
2022-08-05T17:38:40.901Z,100290.50
2022-08-05T17:41:22.706Z,100289.63
2022-08-05T17:44:02.895Z,100297.47
2022-08-05T17:46:35.737Z,100296.59
2022-08-05T17:49:07.088Z,100299.25
2022-08-05T17:51:40.613Z,100294.88
2022-08-05T17:54:11.378Z,100295.00
2022-08-05T17:56:44.861Z,100288.22
2022-08-05T17:59:21.004Z,100286.50
2022-08-05T18:01:54.989Z,100290.84
2022-08-05T18:04:27.093Z,100282.81
2022-08-05T18:07:00.250Z,100274.22
2022-08-05T18:09:59.491Z,100290.03
2022-08-05T18:12:24.400Z,100281.34
2022-08-05T18:14:55.615Z,100285.00
2022-08-05T18:17:59.135Z,100291.19
2022-08-05T18:20:18.465Z,100288.59
2022-08-05T18:22:54.929Z,100287.81
2022-08-05T18:25:32.717Z,100285.31
2022-08-05T18:28:05.142Z,100286.28
2022-08-05T18:30:36.450Z,100285.56
2022-08-05T18:33:13.802Z,100283.94
2022-08-05T18:36:00.981Z,100283.06
2022-08-05T18:38:36.482Z,100283.06
2022-08-05T18:41:54.127Z,100283.00
2022-08-05T18:44:05.849Z,100278.75
2022-08-05T18:46:38.619Z,100275.22
2022-08-05T18:49:30.807Z,100275.16
2022-08-05T18:52:36.407Z,100280.25
2022-08-05T18:55:10.385Z,100280.16
2022-08-05T18:57:50.006Z,100277.50
2022-08-05T19:00:28.420Z,100262.16
2022-08-05T19:03:04.250Z,100289.72
2022-08-05T19:06:11.820Z,100294.03
2022-08-05T19:08:30.853Z,100299.19
2022-08-05T19:11:04.715Z,100295.72
2022-08-05T19:13:36.666Z,100296.66
2022-08-05T19:16:25.341Z,100290.56
2022-08-05T19:19:00.519Z,100295.91
2022-08-05T19:21:34.358Z,100284.56
2022-08-05T19:24:12.329Z,100288.13
2022-08-05T19:26:55.268Z,100276.94
2022-08-05T19:29:35.876Z,100278.50
2022-08-05T19:32:08.680Z,100289.00
2022-08-05T19:34:42.241Z,100281.13
2022-08-05T19:37:35.047Z,100277.50
2022-08-05T19:40:18.098Z,100279.25
2022-08-05T19:43:00.831Z,100277.50
2022-08-05T19:45:36.833Z,100266.00
2022-08-05T19:48:14.406Z,100258.88
2022-08-05T19:50:45.523Z,100259.44
2022-08-05T19:53:17.631Z,100256.38
2022-08-05T19:56:14.311Z,100273.47
2022-08-05T19:58:54.142Z,100280.19
2022-08-05T20:01:28.267Z,100283.53
2022-08-05T20:03:59.394Z,100294.78
2022-08-05T20:06:30.274Z,100296.28
2022-08-05T20:09:13.573Z,100293.34
2022-08-05T20:11:48.196Z,100301.94
2022-08-05T20:14:26.637Z,100310.44
2022-08-05T20:17:01.591Z,100303.41
2022-08-05T20:19:36.129Z,100303.22
2022-08-05T20:22:11.122Z,100304.84
2022-08-05T20:24:43.509Z,100311.72
2022-08-05T20:27:14.234Z,100310.53
2022-08-05T20:29:52.225Z,100308.34
2022-08-05T20:32:29.400Z,100299.97
2022-08-05T20:35:00.276Z,100300.44
2022-08-05T20:38:07.842Z,100311.44
2022-08-05T20:40:22.978Z,100295.66
2022-08-05T20:42:54.150Z,100299.22
2022-08-05T20:45:56.231Z,100300.81
2022-08-05T20:48:21.313Z,100300.81
2022-08-05T20:50:55.595Z,100310.75
2022-08-05T20:53:36.630Z,100293.16
2022-08-05T20:56:09.988Z,100300.06
2022-08-05T20:58:40.641Z,100297.94
2022-08-05T21:01:11.191Z,100296.47
2022-08-05T21:03:47.950Z,100293.41
2022-08-05T21:06:28.610Z,100291.50
2022-08-05T21:09:00.439Z,100299.44
2022-08-05T21:12:08.962Z,100310.88
2022-08-05T21:14:23.342Z,100319.34
2022-08-05T21:16:57.298Z,100322.66
2022-08-05T21:19:28.404Z,100325.72
2022-08-05T21:21:59.009Z,100325.34
2022-08-05T21:24:30.338Z,100317.78
2022-08-05T21:27:02.577Z,100314.94
2022-08-05T21:29:33.799Z,100307.03
2022-08-05T21:32:11.468Z,100315.50
2022-08-05T21:35:06.931Z,100310.59
2022-08-05T21:37:41.211Z,100316.72
2022-08-05T21:40:13.855Z,100309.63
2022-08-05T21:42:46.722Z,100326.66
2022-08-05T21:45:24.633Z,100310.75
2022-08-05T21:47:57.888Z,100298.34
2022-08-05T21:50:28.875Z,100311.47
2022-08-05T21:53:08.303Z,100313.69
2022-08-05T21:56:05.996Z,100322.03
2022-08-05T21:58:42.332Z,100321.06
2022-08-05T22:01:24.271Z,100325.16
2022-08-05T22:03:55.524Z,100325.41
2022-08-05T22:06:35.569Z,100312.09
2022-08-05T22:09:13.805Z,100307.72
2022-08-05T22:11:47.310Z,100316.16
2022-08-05T22:14:35.532Z,100321.63
2022-08-05T22:17:08.923Z,100321.34
2022-08-05T22:20:01.660Z,100308.19
2022-08-05T22:22:30.711Z,100308.88
2022-08-05T22:25:27.566Z,100308.84
2022-08-05T22:28:08.306Z,100317.09
2022-08-05T22:30:56.816Z,100301.22
2022-08-05T22:33:57.169Z,100317.09
2022-08-05T22:36:24.104Z,100312.03
2022-08-05T22:38:55.449Z,100283.66
2022-08-05T22:42:09.772Z,100310.34
2022-08-05T22:44:18.941Z,100296.31
2022-08-05T22:46:51.513Z,100300.88
2022-08-05T22:49:46.095Z,100310.56
2022-08-05T22:52:22.790Z,100302.78
2022-08-05T22:55:04.354Z,100306.09
2022-08-05T22:57:50.530Z,100301.97
2022-08-05T23:00:22.291Z,100300.19
2022-08-05T23:02:55.245Z,100304.16
2022-08-05T23:05:26.302Z,100300.44
2022-08-05T23:07:57.446Z,100298.03
2022-08-05T23:10:28.139Z,100298.31
2022-08-05T23:12:59.391Z,100301.09
2022-08-05T23:15:35.325Z,100306.41
2022-08-05T23:18:11.643Z,100305.00
2022-08-05T23:20:46.631Z,100303.84
2022-08-05T23:23:17.201Z,100313.44
2022-08-05T23:25:53.155Z,100301.13
2022-08-05T23:28:26.914Z,100310.16
2022-08-05T23:31:15.822Z,100301.75
2022-08-05T23:34:05.012Z,100283.97
2022-08-05T23:36:40.262Z,100296.75
2022-08-05T23:39:31.789Z,100301.75
2022-08-05T23:42:03.299Z,100301.56
2022-08-05T23:44:34.081Z,100299.34
2022-08-05T23:47:15.224Z,100296.31
2022-08-05T23:49:49.075Z,100293.50
2022-08-05T23:52:30.747Z,100300.81
2022-08-05T23:55:08.869Z,100300.56
2022-08-05T23:57:40.500Z,100268.19
